Time;durP1;ratioP1;P1;durP2;ratioP2;P2;SDS_P1;SDS_P2;PMS_P1;PMS_P2;Temp;Humidity;BMP_temperature;BMP_pressure;BME280_temperature;BME280_humidity;BME280_pressure;Samples;Min_cycle;Max_cycle;Signal;HPM_P1;HPM_P2
2023/04/01 09:01:48;;;;;;;3.72;0.90;;;;;;;6.82;92.50;95228.72;2121083;27;20568;-62
2023/04/01 09:03:08;;;;;;;3.95;0.80;;;;;;;6.86;91.33;95237.19;2105899;28;20199;-62
2023/04/01 09:04:39;;;;;;;2.42;0.70;;;;;;;6.95;91.06;95233.28;2107697;28;20208;-63
2023/04/01 09:06:18;;;;;;;2.45;0.70;;;;;;;6.96;91.18;95232.38;2097752;28;20195;-62
2023/04/01 09:07:40;;;;;;;1.48;0.65;;;;;;;7.01;89.88;95249.38;2106553;28;20218;-64
2023/04/01 09:09:03;;;;;;;1.95;0.70;;;;;;;7.07;89.55;95229.19;2111942;28;20190;-64
2023/04/01 09:10:35;;;;;;;1.60;0.80;;;;;;;7.18;89.50;95245.03;2111423;28;20198;-64
2023/04/01 09:11:59;;;;;;;2.95;0.70;;;;;;;7.20;88.51;95235.41;2111985;28;20251;-64
2023/04/01 09:13:26;;;;;;;1.20;0.80;;;;;;;7.19;88.63;95229.38;2111774;28;20201;-64
2023/04/01 09:14:56;;;;;;;3.78;1.20;;;;;;;7.12;87.98;95237.56;2108966;28;20215;-64
2023/04/01 09:16:42;;;;;;;2.20;0.77;;;;;;;7.11;89.20;95238.50;2110188;28;20194;-64
2023/04/01 09:17:55;;;;;;;1.00;0.60;;;;;;;6.99;87.94;95242.59;2112018;28;20198;-64
2023/04/01 09:19:22;;;;;;;1.10;0.60;;;;;;;6.99;88.13;95246.00;2111692;28;20204;-64
2023/04/01 09:20:42;;;;;;;1.30;0.60;;;;;;;6.97;88.97;95244.41;2111147;28;20201;-64
2023/04/01 09:21:59;;;;;;;1.00;0.60;;;;;;;6.93;88.98;95248.09;2112517;28;20214;-64
2023/04/01 09:23:06;;;;;;;0.80;0.50;;;;;;;6.96;90.04;95243.59;2103628;28;20198;-64
2023/04/01 09:24:46;;;;;;;0.90;0.50;;;;;;;6.82;87.13;95231.34;2105548;28;20231;-63
2023/04/01 09:26:08;;;;;;;1.48;0.60;;;;;;;6.84;87.41;95247.66;2086986;28;20199;-64
2023/04/01 09:27:20;;;;;;;1.10;0.47;;;;;;;6.82;87.03;95249.50;2109845;28;20205;-64
2023/04/01 09:28:51;;;;;;;0.80;0.50;;;;;;;6.85;87.33;95253.69;2110502;28;20205;-65
2023/04/01 09:30:12;;;;;;;1.48;0.50;;;;;;;6.85;87.30;95240.72;2110001;28;20633;-64
2023/04/01 09:31:38;;;;;;;2.30;0.60;;;;;;;6.81;85.84;95244.38;2109696;28;20221;-64
2023/04/01 09:32:40;;;;;;;1.02;0.47;;;;;;;6.77;86.14;95251.50;2110774;28;20209;-64
2023/04/01 09:34:06;;;;;;;1.10;0.50;;;;;;;6.81;86.83;95257.38;2109975;28;20194;-64
2023/04/01 09:35:40;;;;;;;1.00;0.50;;;;;;;6.79;87.23;95246.22;2111731;28;20614;-64
2023/04/01 09:36:46;;;;;;;0.90;0.50;;;;;;;6.74;86.19;95246.44;2107807;28;20222;-64
2023/04/01 09:38:06;;;;;;;0.90;0.60;;;;;;;6.82;87.25;95246.06;2114370;28;20193;-64
2023/04/01 09:39:26;;;;;;;1.63;0.50;;;;;;;6.87;87.47;95241.47;2113120;27;20298;-64
2023/04/01 09:40:55;;;;;;;3.30;0.50;;;;;;;6.87;86.58;95244.06;2111458;28;20189;-64
2023/04/01 09:41:59;;;;;;;0.85;0.50;;;;;;;6.98;87.89;95256.47;2110591;28;20304;-64
2023/04/01 09:43:07;;;;;;;1.65;0.60;;;;;;;7.01;87.99;95261.53;2111935;28;20217;-64
2023/04/01 09:44:18;;;;;;;0.90;0.50;;;;;;;6.98;85.63;95253.88;2111155;28;20194;-65
2023/04/01 09:45:41;;;;;;;0.90;0.50;;;;;;;7.05;86.78;95254.38;2111445;28;20199;-64
2023/04/01 09:46:58;;;;;;;2.88;0.50;;;;;;;7.04;86.85;95266.53;2109216;28;20223;-64
2023/04/01 09:48:36;;;;;;;1.80;0.50;;;;;;;6.93;85.18;95251.53;2111583;28;20224;-64
2023/04/01 09:50:12;;;;;;;0.80;0.50;;;;;;;6.94;85.11;95257.56;2108466;28;20282;-64
2023/04/01 09:51:38;;;;;;;1.30;0.60;;;;;;;6.97;86.09;95268.63;2106805;28;20558;-63
2023/04/01 09:52:42;;;;;;;0.90;0.50;;;;;;;7.03;86.51;95255.31;2108073;28;20194;-64
2023/04/01 09:54:07;;;;;;;1.30;0.70;;;;;;;7.07;86.10;95266.34;2110161;28;20194;-64
2023/04/01 09:55:08;;;;;;;1.27;0.60;;;;;;;7.14;85.74;95259.09;2110463;28;20824;-64
2023/04/01 09:56:34;;;;;;;0.90;0.60;;;;;;;7.16;86.10;95271.09;2109595;28;20214;-64
2023/04/01 09:58:08;;;;;;;0.80;0.50;;;;;;;7.08;85.15;95256.84;2111228;28;20276;-64
2023/04/01 09:59:13;;;;;;;1.95;0.57;;;;;;;7.28;85.26;95259.19;2107083;28;20203;-64
2023/04/01 10:00:26;;;;;;;0.80;0.50;;;;;;;7.34;84.29;95258.88;2112249;28;20767;-64
2023/04/01 10:02:06;;;;;;;0.80;0.50;;;;;;;7.49;83.13;95257.22;2114182;28;20231;-64
2023/04/01 10:03:37;;;;;;;1.10;0.60;;;;;;;7.84;82.53;95270.00;2086165;28;20200;-64
2023/04/01 10:04:57;;;;;;;1.35;0.50;;;;;;;8.03;82.34;95258.59;2089541;28;20196;-64
2023/04/01 10:06:20;;;;;;;0.90;0.50;;;;;;;8.16;80.90;95250.91;2106863;28;20201;-65
2023/04/01 10:07:50;;;;;;;0.80;0.50;;;;;;;8.58;79.44;95259.81;2112344;28;20241;-65
2023/04/01 10:09:23;;;;;;;3.63;0.60;;;;;;;8.60;79.14;95257.94;2100096;28;20603;-65
2023/04/01 10:10:43;;;;;;;1.02;0.60;;;;;;;8.77;79.85;95256.94;2110297;28;20194;-65
2023/04/01 10:12:00;;;;;;;1.10;0.60;;;;;;;8.82;79.51;95270.53;2110217;28;20214;-65
2023/04/01 10:13:38;;;;;;;1.30;0.60;;;;;;;8.49;80.62;95253.38;2105847;28;20225;-65
2023/04/01 10:15:00;;;;;;;1.20;0.63;;;;;;;8.34;80.81;95255.06;2107112;28;20229;-64
2023/04/01 10:16:25;;;;;;;1.30;0.70;;;;;;;8.32;81.16;95261.28;2107122;28;20243;-65
2023/04/01 10:17:38;;;;;;;1.15;0.70;;;;;;;8.37;80.80;95258.41;2105118;28;20206;-65
2023/04/01 10:19:10;;;;;;;2.17;0.80;;;;;;;8.30;80.36;95286.53;2103245;28;20191;-65
2023/04/01 10:20:31;;;;;;;4.03;0.60;;;;;;;8.34;80.40;95257.66;2104742;28;20192;-65
2023/04/01 10:22:04;;;;;;;1.40;0.60;;;;;;;8.43;80.71;95266.72;2105321;28;20939;-65
2023/04/01 10:23:30;;;;;;;1.15;0.60;;;;;;;8.36;79.26;95264.56;2104374;28;20728;-65
2023/04/01 10:25:27;;;;;;;1.08;0.70;;;;;;;8.40;80.32;95266.03;2103378;28;20211;-65
2023/04/01 10:27:06;;;;;;;0.90;0.60;;;;;;;8.20;79.44;95269.78;2089648;28;20228;-65
2023/04/01 10:28:29;;;;;;;1.10;0.60;;;;;;;8.25;80.87;95275.56;2091229;28;20192;-65
2023/04/01 10:29:42;;;;;;;1.65;0.60;;;;;;;8.28;80.70;95273.63;2089459;28;20682;-65
2023/04/01 10:31:21;;;;;;;1.75;0.80;;;;;;;8.36;80.95;95270.59;2076407;28;20197;-65
2023/04/01 10:33:00;;;;;;;1.00;0.70;;;;;;;8.32;80.39;95261.28;2086657;28;20222;-65
2023/04/01 10:34:26;;;;;;;1.35;0.88;;;;;;;8.18;80.68;95269.88;2089918;28;20684;-65
2023/04/01 10:35:42;;;;;;;1.20;0.80;;;;;;;8.35;81.87;95263.69;2088156;28;20203;-65
2023/04/01 10:36:56;;;;;;;2.25;0.70;;;;;;;8.24;81.13;95279.94;2089291;28;20224;-65
2023/04/01 10:38:14;;;;;;;1.10;0.60;;;;;;;8.09;80.60;95283.41;2086951;28;20666;-66
2023/04/01 10:39:35;;;;;;;0.90;0.50;;;;;;;8.08;80.92;95274.75;2090441;28;20195;-65
2023/04/01 10:41:11;;;;;;;1.55;0.70;;;;;;;7.91;81.01;95288.72;2089628;28;20196;-69
2023/04/01 10:42:13;;;;;;;1.88;0.88;;;;;;;8.05;81.56;95272.34;2090519;28;20220;-69
2023/04/01 10:43:39;;;;;;;1.30;0.70;;;;;;;7.96;80.59;95270.25;2080686;28;20661;-69
2023/04/01 10:45:01;;;;;;;1.10;0.60;;;;;;;7.89;79.60;95269.75;2083900;28;20652;-70
2023/04/01 10:46:30;;;;;;;1.33;0.70;;;;;;;7.95;79.96;95279.00;2088198;28;20224;-70
2023/04/01 10:47:51;;;;;;;1.08;0.60;;;;;;;7.95;79.25;95284.19;2089039;28;20197;-68
2023/04/01 10:49:07;;;;;;;2.38;0.50;;;;;;;8.10;79.37;95270.31;2089959;28;20283;-68
2023/04/01 10:50:41;;;;;;;2.55;0.60;;;;;;;8.19;79.02;95276.75;2088540;28;20196;-68
2023/04/01 10:52:17;;;;;;;1.10;0.50;;;;;;;8.33;78.53;95281.19;2064117;28;20673;-68
2023/04/01 10:53:39;;;;;;;0.90;0.50;;;;;;;8.44;78.18;95268.38;2092291;28;20239;-69
2023/04/01 10:54:49;;;;;;;0.90;0.50;;;;;;;8.32;77.63;95272.50;2089757;28;20261;-69
2023/04/01 10:56:06;;;;;;;1.13;0.73;;;;;;;8.38;78.09;95267.88;2081074;28;20204;-68
2023/04/01 10:57:39;;;;;;;0.80;0.50;;;;;;;8.47;78.00;95270.00;2074529;28;20205;-68
2023/04/01 10:59:02;;;;;;;2.08;0.50;;;;;;;8.63;78.14;95294.19;2104423;28;20429;-68
2023/04/01 11:00:32;;;;;;;0.90;0.50;;;;;;;8.57;77.51;95270.28;2103844;28;20196;-68
2023/04/01 11:01:44;;;;;;;1.48;0.50;;;;;;;8.55;77.66;95274.75;2103592;28;20313;-68
2023/04/01 11:03:08;;;;;;;1.10;0.55;;;;;;;8.69;78.29;95272.16;2104236;28;20199;-68
2023/04/01 11:04:31;;;;;;;1.10;0.50;;;;;;;8.74;77.64;95285.75;2103571;28;20604;-68
2023/04/01 11:05:58;;;;;;;6.75;0.60;;;;;;;8.75;77.06;95290.03;2106422;28;20703;-68
2023/04/01 11:07:27;;;;;;;1.55;0.70;;;;;;;8.80;77.91;95287.16;2107456;28;20243;-68
2023/04/01 11:08:50;;;;;;;0.90;0.50;;;;;;;8.63;77.67;95278.59;2109342;28;20257;-68
2023/04/01 11:10:10;;;;;;;1.30;0.50;;;;;;;8.77;77.94;95285.59;2106793;28;20225;-68
2023/04/01 11:11:39;;;;;;;0.80;0.50;;;;;;;8.86;77.80;95280.75;2104761;28;20214;-68
2023/04/01 11:13:10;;;;;;;1.10;0.60;;;;;;;9.08;77.86;95283.75;2106492;28;20199;-68
2023/04/01 11:14:34;;;;;;;1.23;0.60;;;;;;;9.06;77.31;95287.38;2106166;28;20198;-69
2023/04/01 11:16:10;;;;;;;2.22;0.50;;;;;;;8.74;76.98;95284.91;2105903;28;20207;-68
2023/04/01 11:17:35;;;;;;;3.80;0.75;;;;;;;8.69;78.54;95290.38;2104005;28;20294;-68
2023/04/01 11:19:10;;;;;;;1.10;0.60;;;;;;;9.04;77.99;95291.81;2106001;28;20194;-68
2023/04/01 11:20:30;;;;;;;1.33;0.70;;;;;;;9.11;77.05;95280.94;2109595;28;20646;-68
2023/04/01 11:21:56;;;;;;;2.38;0.60;;;;;;;9.22;77.00;95282.03;2104550;28;20564;-68
2023/04/01 11:23:16;;;;;;;1.00;0.50;;;;;;;9.23;76.50;95287.19;2104065;28;20249;-68
2023/04/01 11:24:17;;;;;;;1.00;0.50;;;;;;;9.18;77.00;95285.78;2103622;28;20206;-68
2023/04/01 11:26:16;;;;;;;0.90;0.50;;;;;;;9.35;77.32;95293.41;2104794;28;20202;-68
2023/04/01 11:27:42;;;;;;;1.10;0.55;;;;;;;9.30;77.45;95283.25;2074096;28;20231;-68
2023/04/01 11:29:07;;;;;;;1.13;0.50;;;;;;;8.97;76.54;95293.97;2075840;28;20208;-68
2023/04/01 11:30:43;;;;;;;1.10;0.50;;;;;;;8.73;77.13;95288.44;2077072;28;20736;-68
2023/04/01 11:32:01;;;;;;;2.25;0.60;;;;;;;8.48;78.33;95264.72;2045431;29;20718;-68
2023/04/01 11:33:22;;;;;;;1.48;0.70;;;;;;;8.59;78.62;95286.66;2093017;28;20203;-68
2023/04/01 11:35:05;;;;;;;1.40;0.60;;;;;;;8.58;79.54;95293.63;2102610;28;20203;-68
2023/04/01 11:36:34;;;;;;;0.90;0.50;;;;;;;8.50;78.91;95278.44;2104449;28;20222;-68
2023/04/01 11:37:53;;;;;;;1.67;0.70;;;;;;;8.51;79.41;95292.31;2106325;28;20289;-68
2023/04/01 11:39:08;;;;;;;1.35;0.63;;;;;;;8.44;79.34;95276.19;2104758;28;20670;-68
2023/04/01 11:40:26;;;;;;;2.65;0.60;;;;;;;8.54;79.53;95286.91;2105755;28;20194;-68
2023/04/01 11:41:45;;;;;;;1.65;0.70;;;;;;;8.58;79.37;95296.25;2104141;28;20662;-67
2023/04/01 11:42:51;;;;;;;1.17;0.50;;;;;;;8.38;78.71;95302.56;2108991;28;20197;-68
2023/04/01 11:44:16;;;;;;;0.90;0.50;;;;;;;8.42;79.70;95298.03;2105987;28;20270;-68
2023/04/01 11:45:39;;;;;;;1.23;0.55;;;;;;;8.45;79.61;95300.44;2108672;28;20414;-66
2023/04/01 11:47:00;;;;;;;1.13;0.50;;;;;;;8.52;79.37;95294.00;2104599;28;20214;-65
2023/04/01 11:48:11;;;;;;;0.80;0.50;;;;;;;8.38;78.79;95294.75;2105389;28;20206;-66
2023/04/01 11:49:41;;;;;;;1.42;0.80;;;;;;;8.47;79.45;95306.44;2105709;28;20226;-67
2023/04/01 11:51:10;;;;;;;7.53;0.60;;;;;;;8.50;78.89;95303.63;2103209;28;20251;-65
2023/04/01 11:52:25;;;;;;;9.07;2.40;;;;;;;8.61;79.58;95308.22;2105954;28;20225;-66
2023/04/01 11:53:26;;;;;;;1.10;0.60;;;;;;;8.52;78.73;95309.59;2105597;28;20230;-68
2023/04/01 11:54:45;;;;;;;2.08;0.60;;;;;;;8.52;79.71;95298.34;2105895;28;20244;-68
2023/04/01 11:56:13;;;;;;;3.28;0.50;;;;;;;8.58;79.70;95309.25;2108153;28;20225;-68
2023/04/01 11:57:36;;;;;;;1.17;0.50;;;;;;;8.46;79.31;95312.56;2104996;28;20195;-68
2023/04/01 11:59:17;;;;;;;1.10;0.50;;;;;;;8.41;78.82;95309.34;2104640;28;20226;-68
2023/04/01 12:00:43;;;;;;;4.70;0.60;;;;;;;8.34;78.95;95317.50;2106140;28;20881;-67
2023/04/01 12:02:09;;;;;;;0.90;0.50;;;;;;;8.41;79.28;95320.56;2105875;28;20241;-65
2023/04/01 12:03:26;;;;;;;0.80;0.50;;;;;;;8.34;78.46;95312.28;2107127;28;20665;-66
2023/04/01 12:04:59;;;;;;;1.00;0.50;;;;;;;8.40;78.50;95308.50;2103012;28;20255;-66
2023/04/01 12:06:19;;;;;;;1.00;0.50;;;;;;;8.64;78.47;95313.25;2105024;28;21655;-66
2023/04/01 12:07:39;;;;;;;1.10;0.50;;;;;;;8.70;77.96;95319.84;2104541;28;20665;-66
2023/04/01 12:08:53;;;;;;;0.90;0.50;;;;;;;8.68;77.25;95314.72;2106498;28;20198;-65
2023/04/01 12:10:03;;;;;;;4.22;2.03;;;;;;;8.61;77.94;95322.06;2106689;28;20199;-66
2023/04/01 12:11:47;;;;;;;0.80;0.50;;;;;;;8.73;77.91;95304.06;2105431;28;20249;-66
2023/04/01 12:13:00;;;;;;;1.23;0.60;;;;;;;8.68;77.46;95306.94;2103743;28;20209;-66
2023/04/01 12:14:17;;;;;;;1.00;0.60;;;;;;;8.57;76.77;95315.38;2106025;28;20232;-66
2023/04/01 12:15:29;;;;;;;0.82;0.50;;;;;;;8.45;76.70;95316.03;2103293;28;20236;-66
2023/04/01 12:16:40;;;;;;;0.80;0.50;;;;;;;8.46;77.18;95310.78;2102465;28;20245;-67
2023/04/01 12:18:11;;;;;;;3.05;0.60;;;;;;;8.64;77.03;95314.06;2103703;28;20191;-67
2023/04/01 12:19:32;;;;;;;2.00;0.60;;;;;;;8.62;76.40;95309.88;2102878;28;20191;-66
2023/04/01 12:20:48;;;;;;;1.00;0.50;;;;;;;8.89;76.29;95315.25;2102718;28;20246;-67
2023/04/01 12:21:59;;;;;;;1.83;0.68;;;;;;;9.15;75.88;95323.25;2103811;28;20292;-66
2023/04/01 12:23:22;;;;;;;0.82;0.47;;;;;;;8.83;74.53;95334.66;2107135;28;20284;-66
2023/04/01 12:25:01;;;;;;;1.30;0.65;;;;;;;8.79;75.17;95327.13;2108095;28;20728;-67
2023/04/01 12:26:30;;;;;;;0.90;0.50;;;;;;;8.66;75.84;95321.81;2106885;28;20804;-66
2023/04/01 12:27:41;;;;;;;1.35;0.60;;;;;;;8.74;76.16;95316.16;2103810;28;20195;-67
2023/04/01 12:29:04;;;;;;;0.82;0.50;;;;;;;8.70;75.95;95319.84;2104502;28;20229;-66
2023/04/01 12:30:15;;;;;;;0.80;0.50;;;;;;;8.75;76.26;95321.25;2098487;28;20531;-66
2023/04/01 12:31:41;;;;;;;0.90;0.55;;;;;;;8.65;76.17;95322.72;2093007;28;20242;-66
2023/04/01 12:33:13;;;;;;;0.80;0.50;;;;;;;8.67;76.64;95323.47;2105422;28;20645;-66
2023/04/01 12:34:35;;;;;;;0.80;0.50;;;;;;;8.68;76.73;95326.91;2104807;28;20190;-66
2023/04/01 12:35:43;;;;;;;0.90;0.60;;;;;;;8.65;76.81;95320.94;2101837;28;20543;-66
2023/04/01 12:37:26;;;;;;;0.90;0.50;;;;;;;8.52;77.08;95327.81;2101990;28;20219;-66
2023/04/01 12:38:51;;;;;;;0.80;0.50;;;;;;;8.43;77.07;95331.75;2105790;28;20198;-67
2023/04/01 12:40:23;;;;;;;1.52;0.50;;;;;;;8.48;77.46;95328.88;2107406;28;20224;-66
2023/04/01 12:41:58;;;;;;;1.00;0.60;;;;;;;8.49;78.39;95343.56;2099064;28;20218;-66
2023/04/01 12:43:28;;;;;;;1.40;0.50;;;;;;;8.56;78.02;95339.72;2104332;28;20277;-66
2023/04/01 12:45:00;;;;;;;1.80;0.60;;;;;;;8.39;77.81;95340.63;2103747;28;20574;-66
2023/04/01 12:46:15;;;;;;;1.00;0.52;;;;;;;8.24;77.99;95331.94;2101989;28;20614;-66
2023/04/01 12:47:39;;;;;;;0.80;0.50;;;;;;;8.14;78.42;95336.81;2101706;28;20201;-66
2023/04/01 12:48:56;;;;;;;1.80;0.50;;;;;;;8.18;78.94;95312.31;2106746;28;20276;-60
2023/04/01 12:50:33;;;;;;;0.90;0.50;;;;;;;8.22;78.95;95333.78;2100246;28;20199;-61
2023/04/01 12:51:58;;;;;;;1.27;0.60;;;;;;;8.12;79.46;95330.84;2106187;28;20223;-61
2023/04/01 12:53:27;;;;;;;0.80;0.40;;;;;;;7.97;79.61;95342.97;2100789;28;20657;-61
2023/04/01 12:55:03;;;;;;;0.90;0.50;;;;;;;7.97;80.50;95363.75;2103767;28;20214;-61
2023/04/01 12:56:14;;;;;;;0.90;0.50;;;;;;;7.92;80.88;95349.31;2098726;28;20219;-61
2023/04/01 12:57:15;;;;;;;0.90;0.60;;;;;;;7.94;81.06;95350.09;2104352;28;20198;-60
2023/04/01 12:58:38;;;;;;;1.00;0.50;;;;;;;7.94;81.12;95345.72;2103497;28;20203;-60
2023/04/01 12:59:52;;;;;;;0.80;0.50;;;;;;;7.93;81.40;95354.44;2103595;28;20285;-61
2023/04/01 13:01:21;;;;;;;2.55;0.60;;;;;;;7.97;81.75;95350.75;2103777;28;20222;-61
2023/04/01 13:02:40;;;;;;;2.03;0.50;;;;;;;7.98;81.94;95352.41;2102284;28;20265;-61
2023/04/01 13:04:09;;;;;;;1.42;0.60;;;;;;;7.97;81.50;95353.38;2102296;28;20278;-61
2023/04/01 13:05:29;;;;;;;2.40;0.73;;;;;;;7.97;81.66;95342.97;2102286;28;20288;-61
2023/04/01 13:06:51;;;;;;;8.38;3.40;;;;;;;7.95;82.10;95342.19;2103467;28;20226;-62
2023/04/01 13:08:03;;;;;;;2.60;1.45;;;;;;;8.00;81.58;95352.34;2102380;28;20332;-61
2023/04/01 13:09:24;;;;;;;4.15;1.40;;;;;;;8.08;81.39;95354.53;2100876;28;20779;-60
2023/04/01 13:11:00;;;;;;;3.13;1.15;;;;;;;8.05;81.17;95333.88;2105876;28;20222;-61
2023/04/01 13:12:05;;;;;;;1.45;0.70;;;;;;;8.05;81.10;95349.47;2103293;28;20290;-61
2023/04/01 13:13:25;;;;;;;2.33;0.77;;;;;;;8.05;81.19;95357.28;2105799;28;20197;-61
2023/04/01 13:14:46;;;;;;;1.10;0.70;;;;;;;8.04;80.59;95350.41;2104533;28;20202;-61
2023/04/01 13:16:01;;;;;;;1.20;0.65;;;;;;;8.04;80.47;95348.66;2100526;28;20558;-61
2023/04/01 13:17:20;;;;;;;1.77;0.73;;;;;;;8.20;80.48;95350.41;2106239;28;20883;-61
2023/04/01 13:18:39;;;;;;;1.42;0.80;;;;;;;8.49;80.77;95351.38;2106410;28;20743;-61
2023/04/01 13:20:01;;;;;;;1.23;0.70;;;;;;;8.45;79.73;95340.28;2104145;28;20261;-61
2023/04/01 13:21:32;;;;;;;0.90;0.50;;;;;;;8.37;79.76;95358.09;2104139;28;20305;-61
2023/04/01 13:22:39;;;;;;;0.90;0.50;;;;;;;8.41;79.44;95353.56;2105115;28;20713;-61
2023/04/01 13:24:02;;;;;;;0.80;0.50;;;;;;;8.25;79.12;95362.25;2102192;28;20609;-61
2023/04/01 13:25:19;;;;;;;0.80;0.50;;;;;;;8.23;79.72;95355.41;2103768;28;20206;-61
2023/04/01 13:26:36;;;;;;;0.80;0.50;;;;;;;8.29;79.71;95368.06;2102262;28;20226;-61
2023/04/01 13:27:47;;;;;;;0.90;0.50;;;;;;;8.23;78.92;95363.22;2102808;28;20207;-62
2023/04/01 13:29:15;;;;;;;0.80;0.50;;;;;;;8.24;80.29;95377.91;2101985;28;20274;-61
2023/04/01 13:30:34;;;;;;;0.90;0.50;;;;;;;8.17;80.10;95372.22;2101985;28;20195;-61
2023/04/01 13:31:49;;;;;;;2.25;1.20;;;;;;;8.34;81.25;95374.72;2103497;28;20214;-62
2023/04/01 13:32:58;;;;;;;1.50;0.68;;;;;;;8.33;80.22;95367.00;2099806;28;20277;-61
2023/04/01 13:34:19;;;;;;;1.10;0.60;;;;;;;8.41;81.01;95358.78;2098598;28;20217;-61
2023/04/01 13:35:36;;;;;;;0.90;0.55;;;;;;;8.45;80.63;95368.91;2102125;28;20203;-62
2023/04/01 13:37:07;;;;;;;0.90;0.50;;;;;;;8.60;80.50;95375.03;2103920;28;20592;-62
2023/04/01 13:38:27;;;;;;;0.90;0.50;;;;;;;8.60;80.82;95369.81;2103837;28;20191;-63
2023/04/01 13:39:47;;;;;;;2.20;0.80;;;;;;;8.53;81.14;95372.88;2104523;28;20662;-63
2023/04/01 13:41:18;;;;;;;1.27;0.70;;;;;;;8.45;80.88;95368.06;2101187;28;20183;-62
2023/04/01 13:42:40;;;;;;;1.15;0.60;;;;;;;8.49;80.95;95377.41;2105778;28;20724;-62
2023/04/01 13:43:51;;;;;;;1.10;0.50;;;;;;;8.32;79.98;95378.34;2103067;28;20597;-62
2023/04/01 13:45:11;;;;;;;0.85;0.50;;;;;;;8.23;80.97;95379.69;2104860;28;20736;-62
2023/04/01 13:46:37;;;;;;;1.40;0.52;;;;;;;8.23;80.56;95371.03;2100047;28;20283;-62
2023/04/01 13:47:44;;;;;;;0.80;0.50;;;;;;;8.23;81.74;95384.88;2105322;28;20763;-63
2023/04/01 13:49:22;;;;;;;1.05;0.50;;;;;;;8.24;82.33;95380.50;2106039;28;20671;-62
2023/04/01 13:50:23;;;;;;;0.90;0.50;;;;;;;8.30;82.42;95383.63;2105491;28;20194;-61
2023/04/01 13:51:39;;;;;;;1.20;0.60;;;;;;;8.26;80.37;95376.91;2099633;28;20224;-62
2023/04/01 13:52:53;;;;;;;1.55;0.50;;;;;;;8.20;80.04;95377.22;2102224;28;20188;-61
2023/04/01 13:54:23;;;;;;;0.80;0.50;;;;;;;8.07;79.61;95377.06;2105542;28;20206;-62
2023/04/01 13:55:30;;;;;;;1.10;0.50;;;;;;;8.03;80.16;95379.94;2105789;28;20195;-61
2023/04/01 13:56:43;;;;;;;2.15;1.00;;;;;;;8.05;81.96;95380.69;2105944;28;20219;-61
2023/04/01 13:57:57;;;;;;;1.13;0.57;;;;;;;8.03;81.34;95380.78;2106405;28;20195;-61
2023/04/01 13:59:12;;;;;;;2.55;0.60;;;;;;;7.99;80.82;95384.47;2105388;28;20191;-62
2023/04/01 14:00:19;;;;;;;2.53;1.10;;;;;;;8.03;81.86;95377.34;2100726;28;20624;-62
2023/04/01 14:01:46;;;;;;;1.20;0.60;;;;;;;7.98;80.48;95387.97;2103172;28;20223;-61
2023/04/01 14:03:25;;;;;;;0.90;0.57;;;;;;;8.00;81.63;95392.19;2103989;28;20327;-62
2023/04/01 14:05:00;;;;;;;0.90;0.50;;;;;;;7.95;80.91;95394.19;2080086;28;20201;-62
2023/04/01 14:06:12;;;;;;;0.80;0.50;;;;;;;7.89;80.91;95378.91;2104509;28;20543;-61
2023/04/01 14:07:20;;;;;;;1.27;0.50;;;;;;;7.85;80.47;95383.44;2105484;28;20239;-62
2023/04/01 14:08:27;;;;;;;0.90;0.50;;;;;;;7.78;80.01;95395.09;2105754;28;20194;-62
2023/04/01 14:10:03;;;;;;;1.50;0.75;;;;;;;7.81;80.93;95387.13;2102517;28;20512;-62
2023/04/01 14:11:20;;;;;;;0.90;0.50;;;;;;;7.77;81.21;95384.78;2105349;28;20249;-62
2023/04/01 14:12:45;;;;;;;0.90;0.50;;;;;;;7.76;81.21;95385.72;2104057;28;20664;-62
2023/04/01 14:14:05;;;;;;;0.90;0.50;;;;;;;7.78;80.79;95386.47;2104787;28;20195;-62
2023/04/01 14:15:21;;;;;;;1.00;0.60;;;;;;;7.80;81.42;95382.03;2104210;28;20227;-62
2023/04/01 14:16:32;;;;;;;1.00;0.60;;;;;;;7.85;81.50;95383.44;2104711;28;20230;-62
2023/04/01 14:18:00;;;;;;;0.80;0.50;;;;;;;7.87;80.98;95385.94;2107760;28;20254;-61
2023/04/01 14:19:25;;;;;;;0.98;0.50;;;;;;;7.88;80.19;95381.59;2108069;28;20206;-60
2023/04/01 14:20:33;;;;;;;0.82;0.50;;;;;;;7.86;81.61;95381.69;2104546;28;20677;-61
2023/04/01 14:21:41;;;;;;;1.25;0.57;;;;;;;7.87;81.27;95383.34;2107451;28;20211;-61
2023/04/01 14:23:18;;;;;;;0.90;0.60;;;;;;;7.83;80.62;95389.66;2102901;28;20207;-62
2023/04/01 14:24:35;;;;;;;1.02;0.55;;;;;;;7.71;80.86;95377.31;2106317;28;20191;-61
2023/04/01 14:25:54;;;;;;;2.15;0.82;;;;;;;7.77;81.59;95401.22;2107211;28;20672;-62
2023/04/01 14:27:33;;;;;;;7.95;3.10;;;;;;;7.78;81.83;95389.91;2106316;28;20211;-67
2023/04/01 14:29:10;;;;;;;8.50;3.70;;;;;;;7.79;82.43;95390.75;2104600;28;20198;-67
2023/04/01 14:30:39;;;;;;;3.60;1.50;;;;;;;7.87;82.18;95398.94;2106101;28;20224;-67
2023/04/01 14:31:50;;;;;;;2.10;0.85;;;;;;;7.96;82.77;95397.63;2114050;27;20214;-68
2023/04/01 14:33:13;;;;;;;1.13;0.60;;;;;;;7.96;82.53;95395.00;2113231;27;20230;-68
2023/04/01 14:34:14;;;;;;;1.02;0.55;;;;;;;8.00;82.59;95397.38;2113703;27;20245;-68
2023/04/01 14:35:16;;;;;;;1.13;0.50;;;;;;;8.03;82.78;95396.38;2113029;27;20198;-69
2023/04/01 14:36:55;;;;;;;1.10;0.60;;;;;;;8.08;82.82;95393.53;2112577;27;20254;-68
2023/04/01 14:38:24;;;;;;;1.20;0.70;;;;;;;8.14;82.99;95388.00;2068361;28;20205;-68
2023/04/01 14:40:20;;;;;;;1.23;0.70;;;;;;;8.16;82.82;95389.59;2108341;27;20228;-68
2023/04/01 14:41:49;;;;;;;0.80;0.50;;;;;;;8.05;81.97;95398.88;2072547;28;20225;-68
2023/04/01 14:43:09;;;;;;;0.80;0.50;;;;;;;8.01;82.23;95393.88;2071651;28;20265;-68
2023/04/01 14:44:30;;;;;;;1.00;0.60;;;;;;;7.99;82.87;95393.09;2111828;27;20201;-68
2023/04/01 14:45:53;;;;;;;1.27;0.60;;;;;;;8.04;83.21;95392.84;2116969;27;20691;-67
2023/04/01 14:47:15;;;;;;;1.00;0.60;;;;;;;8.08;83.55;95401.31;2116071;27;20213;-68
2023/04/01 14:48:49;;;;;;;1.35;0.60;;;;;;;8.07;83.97;95402.25;2113484;27;21004;-67
2023/04/01 14:50:05;;;;;;;1.52;0.75;;;;;;;8.08;84.28;95396.97;2114216;27;20685;-68
2023/04/01 14:51:15;;;;;;;3.67;0.70;;;;;;;8.06;84.18;95398.78;2100926;28;20219;-62
2023/04/01 14:52:35;;;;;;;1.00;0.60;;;;;;;8.06;84.06;95405.75;2106676;27;21053;-62
